Time;durP1;ratioP1;P1;durP2;ratioP2;P2;SDS_P1;SDS_P2;PMS_P1;PMS_P2;Temp;Humidity;BMP_temperature;BMP_pressure;BME280_temperature;BME280_humidity;BME280_pressure;Samples;Min_cycle;Max_cycle;Signal;HPM_P1;HPM_P2
2023/08/22 00:00:44;;;;;;;;;;;;;;;26.09;40.64;99730.53;3158665;28;19928;-71
2023/08/22 00:02:16;;;;;;;;;;;;;;;26.11;40.51;99733.00;3136347;28;20330;-70
2023/08/22 00:03:47;;;;;;;;;;;;;;;26.14;40.39;99727.31;3158759;28;20080;-71
2023/08/22 00:05:19;;;;;;;;;;;;;;;26.16;40.17;99735.16;3158700;28;19930;-70
2023/08/22 00:06:49;;;;;;;;;;;;;;;26.18;40.04;99725.16;3158572;28;20329;-70
2023/08/22 00:08:21;;;;;;;;;;;;;;;26.17;40.36;99731.50;3156459;28;19927;-70
2023/08/22 00:09:51;;;;;;;;;;;;;;;26.16;40.26;99725.31;3158834;28;20000;-70
2023/08/22 00:11:24;;;;;;;;;;;;;;;26.17;40.20;99729.66;3158621;28;19930;-71
2023/08/22 00:12:55;;;;;;;;;;;;;;;26.18;40.24;99730.50;3158739;28;19973;-70
2023/08/22 00:14:26;;;;;;;;;;;;;;;26.18;40.15;99726.00;3156885;28;20019;-70
2023/08/22 00:15:58;;;;;;;;;;;;;;;26.19;39.84;99727.66;3158942;28;19920;-70
2023/08/22 00:17:30;;;;;;;;;;;;;;;26.19;40.07;99732.16;3159066;28;19920;-70
2023/08/22 00:19:01;;;;;;;;;;;;;;;26.16;40.00;99736.00;3158841;28;19924;-70
2023/08/22 00:20:33;;;;;;;;;;;;;;;26.13;39.93;99727.50;3156315;28;20598;-71
2023/08/22 00:22:03;;;;;;;;;;;;;;;26.09;40.13;99737.69;3156792;28;19924;-70
2023/08/22 00:23:35;;;;;;;;;;;;;;;26.05;40.20;99734.50;3147507;28;20452;-70
2023/08/22 00:25:06;;;;;;;;;;;;;;;26.04;40.13;99738.19;3159015;28;19920;-70
2023/08/22 00:26:38;;;;;;;;;;;;;;;26.07;40.34;99742.38;3158987;28;19924;-70
2023/08/22 00:28:09;;;;;;;;;;;;;;;26.06;40.52;99746.03;3140446;28;19927;-70
2023/08/22 00:29:41;;;;;;;;;;;;;;;26.07;40.39;99737.84;3158149;28;19924;-71
2023/08/22 00:31:11;;;;;;;;;;;;;;;26.06;40.49;99738.03;3158609;28;19920;-71
2023/08/22 00:32:43;;;;;;;;;;;;;;;26.06;40.45;99738.03;3158782;28;19924;-70
2023/08/22 00:34:13;;;;;;;;;;;;;;;26.07;40.32;99742.38;3158300;28;19978;-71
2023/08/22 00:35:45;;;;;;;;;;;;;;;26.07;40.10;99740.53;3158670;28;20458;-71
2023/08/22 00:37:15;;;;;;;;;;;;;;;26.06;40.18;99740.72;3154608;28;20421;-70
2023/08/22 00:38:47;;;;;;;;;;;;;;;26.03;40.18;99736.53;3152842;28;19930;-69
2023/08/22 00:40:18;;;;;;;;;;;;;;;26.01;40.53;99741.22;3158587;28;19931;-69
2023/08/22 00:41:50;;;;;;;;;;;;;;;25.98;40.58;99738.88;3158713;28;19919;-69
2023/08/22 00:43:21;;;;;;;;;;;;;;;25.97;40.66;99741.72;3153714;28;19920;-69
2023/08/22 00:44:53;;;;;;;;;;;;;;;25.95;40.64;99744.56;3158220;28;19920;-70
2023/08/22 00:46:25;;;;;;;;;;;;;;;25.95;40.16;99747.22;3158434;28;19920;-71
2023/08/22 00:47:57;;;;;;;;;;;;;;;25.95;40.27;99743.72;3158306;28;19920;-70
2023/08/22 00:49:28;;;;;;;;;;;;;;;25.92;40.53;99742.22;3158477;28;19924;-70
2023/08/22 00:50:59;;;;;;;;;;;;;;;25.86;40.68;99745.56;3158303;28;19942;-70
2023/08/22 00:52:31;;;;;;;;;;;;;;;25.82;40.68;99747.75;3152609;28;20446;-70
2023/08/22 00:54:02;;;;;;;;;;;;;;;25.77;41.13;99752.72;3158259;28;19920;-70
2023/08/22 00:55:34;;;;;;;;;;;;;;;25.76;40.73;99743.03;3158189;28;19924;-71
2023/08/22 00:57:06;;;;;;;;;;;;;;;25.75;40.81;99749.38;3157084;28;19920;-70
2023/08/22 00:58:38;;;;;;;;;;;;;;;25.76;40.69;99744.88;3155823;28;19920;-70
2023/08/22 01:00:10;;;;;;;;;;;;;;;25.77;40.88;99751.91;3158395;28;19920;-70
2023/08/22 01:01:41;;;;;;;;;;;;;;;25.78;40.58;99758.88;3147001;28;19936;-71
2023/08/22 01:03:12;;;;;;;;;;;;;;;25.77;40.79;99747.41;3150459;28;19927;-71
2023/08/22 01:04:44;;;;;;;;;;;;;;;25.78;40.66;99750.88;3158315;28;19924;-70
2023/08/22 01:06:16;;;;;;;;;;;;;;;25.76;40.55;99750.22;3158343;28;19920;-69
2023/08/22 01:07:51;;;;;;;;;;;;;;;25.74;40.86;99745.06;3155351;28;19920;-70
2023/08/22 01:09:25;;;;;;;;;;;;;;;25.73;40.77;99745.22;3158162;28;19920;-70
2023/08/22 01:10:59;;;;;;;;;;;;;;;25.70;40.97;99750.88;3157998;28;19924;-71
2023/08/22 01:12:34;;;;;;;;;;;;;;;25.69;41.06;99744.72;3154041;28;20015;-70
2023/08/22 01:14:08;;;;;;;;;;;;;;;25.68;41.00;99743.06;3151844;28;20351;-71
2023/08/22 01:15:40;;;;;;;;;;;;;;;25.68;41.04;99748.41;3158244;28;19981;-71
2023/08/22 01:17:14;;;;;;;;;;;;;;;25.67;40.74;99741.38;3151688;28;20021;-71
2023/08/22 01:18:45;;;;;;;;;;;;;;;25.64;40.88;99750.59;3158390;28;19927;-71
2023/08/22 01:20:18;;;;;;;;;;;;;;;25.62;40.63;99744.56;3157977;28;19920;-71
2023/08/22 01:21:51;;;;;;;;;;;;;;;25.56;41.03;99742.59;3155010;28;19974;-71
2023/08/22 01:23:22;;;;;;;;;;;;;;;25.48;41.44;99747.91;3158496;28;19920;-71
2023/08/22 01:24:53;;;;;;;;;;;;;;;25.41;41.31;99742.41;3147233;28;19982;-71
2023/08/22 01:26:25;;;;;;;;;;;;;;;25.37;41.34;99749.06;3154662;28;19920;-71
2023/08/22 01:28:00;;;;;;;;;;;;;;;25.37;41.54;99750.91;3156730;28;20586;-70
2023/08/22 01:29:35;;;;;;;;;;;;;;;25.37;41.17;99746.41;3158240;28;20011;-72
2023/08/22 01:31:10;;;;;;;;;;;;;;;25.36;41.37;99752.72;3157679;28;20021;-72
2023/08/22 01:32:43;;;;;;;;;;;;;;;25.32;41.80;99748.75;3158090;28;19931;-72
2023/08/22 01:34:17;;;;;;;;;;;;;;;25.30;41.60;99747.25;3157779;28;19924;-71
2023/08/22 01:35:50;;;;;;;;;;;;;;;25.29;41.68;99751.75;3158081;28;19931;-71
2023/08/22 01:37:23;;;;;;;;;;;;;;;25.29;41.72;99748.22;3153427;28;19975;-71
2023/08/22 01:38:54;;;;;;;;;;;;;;;25.28;41.50;99755.38;3153702;28;19920;-71
2023/08/22 01:40:26;;;;;;;;;;;;;;;25.28;41.96;99752.72;3157948;28;19920;-70
2023/08/22 01:41:58;;;;;;;;;;;;;;;25.26;42.08;99757.41;3153267;28;20313;-70
2023/08/22 01:43:29;;;;;;;;;;;;;;;25.24;41.76;99751.41;3157612;28;19923;-70
2023/08/22 01:45:00;;;;;;;;;;;;;;;25.24;42.12;99759.38;3157714;28;19920;-70
2023/08/22 01:46:31;;;;;;;;;;;;;;;25.26;41.80;99764.53;3157691;28;20231;-70
2023/08/22 01:48:03;;;;;;;;;;;;;;;25.23;41.92;99763.06;3157768;28;19920;-70
2023/08/22 01:49:37;;;;;;;;;;;;;;;25.18;42.39;99763.53;3157862;28;19920;-70
2023/08/22 01:51:08;;;;;;;;;;;;;;;25.13;42.52;99759.66;3157235;28;19931;-70
2023/08/22 01:52:40;;;;;;;;;;;;;;;25.10;42.51;99758.16;3151211;28;20313;-69
2023/08/22 01:54:12;;;;;;;;;;;;;;;25.09;42.78;99758.34;3157940;28;20003;-70
2023/08/22 01:55:42;;;;;;;;;;;;;;;25.08;42.45;99754.00;3153175;28;19924;-69
2023/08/22 01:57:14;;;;;;;;;;;;;;;25.09;42.43;99758.34;3156506;28;19924;-69
2023/08/22 01:58:46;;;;;;;;;;;;;;;25.07;42.80;99758.50;3158195;28;20014;-69
2023/08/22 02:00:16;;;;;;;;;;;;;;;25.08;42.75;99760.19;3157745;28;19927;-68
2023/08/22 02:01:48;;;;;;;;;;;;;;;25.07;42.84;99760.31;3145206;28;19921;-68
2023/08/22 02:03:20;;;;;;;;;;;;;;;25.04;42.90;99755.31;3149476;28;19923;-68
2023/08/22 02:04:51;;;;;;;;;;;;;;;25.03;42.83;99751.84;3157591;28;19934;-68
2023/08/22 02:06:22;;;;;;;;;;;;;;;25.02;42.73;99760.81;3158258;28;19977;-68
2023/08/22 02:07:54;;;;;;;;;;;;;;;24.99;42.73;99753.13;3154723;28;19930;-68
2023/08/22 02:09:26;;;;;;;;;;;;;;;25.01;42.66;99753.00;3157845;28;19926;-67
2023/08/22 02:10:57;;;;;;;;;;;;;;;25.03;42.55;99748.34;3153633;28;20374;-68
2023/08/22 02:12:28;;;;;;;;;;;;;;;25.05;42.44;99749.00;3156462;28;19924;-68
2023/08/22 02:13:59;;;;;;;;;;;;;;;25.07;42.63;99753.16;3148050;28;20298;-68
2023/08/22 02:15:31;;;;;;;;;;;;;;;25.08;42.75;99746.84;3158469;28;19927;-68
2023/08/22 02:17:01;;;;;;;;;;;;;;;25.04;42.64;99748.16;3148823;28;19974;-68
2023/08/22 02:18:33;;;;;;;;;;;;;;;24.97;43.29;99749.81;3160109;28;20557;-69
2023/08/22 02:20:04;;;;;;;;;;;;;;;24.91;43.09;99747.81;3158406;28;20034;-68
2023/08/22 02:21:36;;;;;;;;;;;;;;;24.89;43.49;99753.28;3160060;28;19920;-68
2023/08/22 02:23:09;;;;;;;;;;;;;;;24.86;43.20;99747.47;3159232;28;19931;-69
2023/08/22 02:24:40;;;;;;;;;;;;;;;24.80;43.29;99745.44;3160151;28;19954;-69
2023/08/22 02:26:11;;;;;;;;;;;;;;;24.73;43.54;99748.75;3160358;28;19943;-68
2023/08/22 02:27:42;;;;;;;;;;;;;;;24.70;43.67;99749.09;3160153;28;19920;-69
2023/08/22 02:29:13;;;;;;;;;;;;;;;24.64;44.03;99749.75;3160332;28;19924;-69
2023/08/22 02:30:45;;;;;;;;;;;;;;;24.58;43.82;99750.38;3159846;28;19920;-70
2023/08/22 02:32:15;;;;;;;;;;;;;;;24.54;44.04;99740.19;3159991;28;19920;-69
2023/08/22 02:33:47;;;;;;;;;;;;;;;24.48;44.30;99753.16;3159929;28;20327;-69
2023/08/22 02:35:17;;;;;;;;;;;;;;;24.44;44.33;99751.81;3160142;28;19920;-69
2023/08/22 02:36:49;;;;;;;;;;;;;;;24.37;44.76;99747.25;3160000;28;19924;-69
2023/08/22 02:38:21;;;;;;;;;;;;;;;24.33;44.63;99749.41;3151458;28;20416;-69
2023/08/22 02:39:53;;;;;;;;;;;;;;;24.29;44.89;99748.88;3155791;28;20010;-69
2023/08/22 02:41:23;;;;;;;;;;;;;;;24.28;44.83;99749.88;3159693;28;20027;-68
2023/08/22 02:42:55;;;;;;;;;;;;;;;24.28;44.45;99749.88;3159597;28;19920;-69
2023/08/22 02:44:26;;;;;;;;;;;;;;;24.30;44.28;99747.88;3160193;28;19920;-69
2023/08/22 02:45:57;;;;;;;;;;;;;;;24.34;44.46;99751.06;3160012;28;20413;-69
2023/08/22 02:47:29;;;;;;;;;;;;;;;24.35;44.24;99749.25;3159537;28;19924;-69
2023/08/22 02:49:00;;;;;;;;;;;;;;;24.31;44.42;99748.72;3159706;28;20393;-69
2023/08/22 02:50:32;;;;;;;;;;;;;;;24.30;44.49;99753.22;3159871;28;19920;-70
2023/08/22 02:52:03;;;;;;;;;;;;;;;24.29;44.53;99751.56;3157810;28;19940;-72
2023/08/22 02:53:36;;;;;;;;;;;;;;;24.30;44.46;99744.41;3155229;28;20053;-72
2023/08/22 02:55:07;;;;;;;;;;;;;;;24.34;44.36;99750.22;3154989;28;20011;-72
2023/08/22 02:56:39;;;;;;;;;;;;;;;24.37;43.99;99757.88;3160123;28;19923;-71
2023/08/22 02:58:09;;;;;;;;;;;;;;;24.39;43.84;99755.91;3159305;28;19919;-72
2023/08/22 02:59:41;;;;;;;;;;;;;;;24.41;44.01;99757.44;3159667;28;19924;-72
2023/08/22 03:01:12;;;;;;;;;;;;;;;24.43;43.72;99752.81;3158271;28;19927;-72
2023/08/22 03:02:43;;;;;;;;;;;;;;;24.42;43.79;99751.13;3150947;28;20656;-70
2023/08/22 03:04:14;;;;;;;;;;;;;;;24.43;44.19;99759.94;3159968;28;19928;-70
2023/08/22 03:05:45;;;;;;;;;;;;;;;24.40;44.08;99758.44;3159029;28;19927;-70
2023/08/22 03:07:16;;;;;;;;;;;;;;;24.38;44.06;99756.91;3157363;28;19920;-70
2023/08/22 03:08:49;;;;;;;;;;;;;;;24.35;44.15;99757.25;3154938;28;20074;-69
2023/08/22 03:10:19;;;;;;;;;;;;;;;24.31;44.30;99759.34;3159723;28;19920;-69
2023/08/22 03:11:51;;;;;;;;;;;;;;;24.28;44.57;99755.22;3159776;28;20350;-71
2023/08/22 03:13:21;;;;;;;;;;;;;;;24.25;44.52;99763.50;3155374;28;19932;-70
2023/08/22 03:14:53;;;;;;;;;;;;;;;24.24;44.56;99771.63;3157445;28;19931;-70
2023/08/22 03:16:24;;;;;;;;;;;;;;;24.22;44.61;99765.63;3156610;28;20376;-70
2023/08/22 03:17:55;;;;;;;;;;;;;;;24.20;44.73;99768.47;3155889;28;19920;-70
2023/08/22 03:19:27;;;;;;;;;;;;;;;24.20;44.43;99771.13;3159478;28;19920;-69
2023/08/22 03:20:57;;;;;;;;;;;;;;;24.20;44.56;99772.97;3159529;28;19920;-70
2023/08/22 03:22:29;;;;;;;;;;;;;;;24.20;44.55;99772.97;3154034;28;19924;-70
2023/08/22 03:24:01;;;;;;;;;;;;;;;24.21;44.69;99783.44;3147983;28;19920;-70
2023/08/22 03:25:32;;;;;;;;;;;;;;;24.23;44.55;99783.28;3155478;28;19924;-69
2023/08/22 03:27:03;;;;;;;;;;;;;;;24.22;44.47;99777.09;3154527;28;19928;-69
2023/08/22 03:28:34;;;;;;;;;;;;;;;24.22;44.43;99779.75;3154558;28;19928;-70
2023/08/22 03:30:06;;;;;;;;;;;;;;;24.21;44.59;99786.09;3154110;28;19947;-70
2023/08/22 03:31:37;;;;;;;;;;;;;;;24.20;44.43;99784.44;3154077;28;19932;-70
2023/08/22 03:33:09;;;;;;;;;;;;;;;24.17;44.81;99778.59;3154376;28;19924;-69
2023/08/22 03:34:39;;;;;;;;;;;;;;;24.13;44.77;99778.06;3154634;28;20371;-70
2023/08/22 03:36:11;;;;;;;;;;;;;;;24.09;44.86;99782.03;3154380;28;19976;-70
2023/08/22 03:37:42;;;;;;;;;;;;;;;24.05;45.16;99781.50;3146242;28;20412;-70
2023/08/22 03:39:15;;;;;;;;;;;;;;;24.01;45.04;99782.81;3151837;28;19924;-70
2023/08/22 03:40:46;;;;;;;;;;;;;;;24.00;45.03;99783.81;3154106;28;20438;-70
2023/08/22 03:42:17;;;;;;;;;;;;;;;23.98;45.34;99780.44;3154338;28;19923;-70
2023/08/22 03:43:49;;;;;;;;;;;;;;;23.97;45.17;99778.78;3154162;28;20383;-70
2023/08/22 03:45:19;;;;;;;;;;;;;;;23.98;45.34;99782.28;3154353;28;19924;-70
2023/08/22 03:46:51;;;;;;;;;;;;;;;23.97;45.24;99777.97;3154198;28;19924;-70
2023/08/22 03:48:22;;;;;;;;;;;;;;;23.97;45.24;99778.78;3154401;28;19924;-70
2023/08/22 03:49:53;;;;;;;;;;;;;;;23.98;45.04;99780.44;3154250;28;19981;-70
2023/08/22 03:51:24;;;;;;;;;;;;;;;24.02;45.05;99783.66;3154122;28;19928;-70
2023/08/22 03:52:55;;;;;;;;;;;;;;;24.03;45.08;99780.81;3148127;28;19971;-70
2023/08/22 03:54:27;;;;;;;;;;;;;;;24.04;44.94;99776.34;3154413;28;19924;-69
2023/08/22 03:55:59;;;;;;;;;;;;;;;24.02;45.57;99776.50;3154142;28;19928;-70
2023/08/22 03:57:30;;;;;;;;;;;;;;;23.99;45.40;99778.66;3154301;28;19924;-70
2023/08/22 03:59:01;;;;;;;;;;;;;;;23.97;45.35;99784.13;3154182;28;20345;-70
2023/08/22 04:00:32;;;;;;;;;;;;;;;24.01;45.14;99793.44;3136083;28;19923;-69
2023/08/22 04:02:03;;;;;;;;;;;;;;;24.04;45.20;99786.97;3142830;28;19935;-69
2023/08/22 04:03:34;;;;;;;;;;;;;;;24.09;44.99;99789.19;3154231;28;19924;-69
2023/08/22 04:05:06;;;;;;;;;;;;;;;24.11;45.19;99788.03;3153471;28;20435;-70
2023/08/22 04:06:38;;;;;;;;;;;;;;;24.15;45.03;99788.56;3153796;28;19928;-70
2023/08/22 04:08:08;;;;;;;;;;;;;;;24.16;45.03;99788.38;3152114;28;19994;-66
2023/08/22 04:09:41;;;;;;;;;;;;;;;24.18;45.02;99786.41;3153933;28;20449;-70
2023/08/22 04:11:12;;;;;;;;;;;;;;;24.20;44.92;99792.41;3153792;28;20448;-67
2023/08/22 04:12:43;;;;;;;;;;;;;;;24.20;44.75;99787.09;3151227;28;19973;-69
2023/08/22 04:14:15;;;;;;;;;;;;;;;24.24;44.86;99793.75;3146646;28;20320;-69
2023/08/22 04:15:46;;;;;;;;;;;;;;;24.27;44.61;99800.59;3152741;28;19924;-67
2023/08/22 04:17:17;;;;;;;;;;;;;;;24.29;44.91;99790.63;3153774;28;19930;-68
2023/08/22 04:18:48;;;;;;;;;;;;;;;24.29;44.58;99796.78;3153128;28;20432;-67
2023/08/22 04:20:19;;;;;;;;;;;;;;;24.32;44.63;99794.81;3153401;28;19924;-69
2023/08/22 04:21:50;;;;;;;;;;;;;;;24.35;44.67;99799.81;3153195;28;19927;-68
2023/08/22 04:23:22;;;;;;;;;;;;;;;24.35;44.73;99805.13;3146792;28;20469;-67
2023/08/22 04:24:54;;;;;;;;;;;;;;;24.36;44.79;99801.47;3147613;28;20060;-69
2023/08/22 04:26:25;;;;;;;;;;;;;;;24.40;44.79;99805.47;3147741;28;20724;-67
2023/08/22 04:27:56;;;;;;;;;;;;;;;24.44;44.71;99798.91;3140861;28;19931;-68
2023/08/22 04:29:27;;;;;;;;;;;;;;;24.48;44.46;99801.06;3146102;28;19966;-68
2023/08/22 04:30:59;;;;;;;;;;;;;;;24.52;44.79;99806.91;3153575;28;20015;-67
2023/08/22 04:32:30;;;;;;;;;;;;;;;24.54;44.47;99807.59;3153067;28;20320;-68
2023/08/22 04:34:02;;;;;;;;;;;;;;;24.57;44.45;99812.59;3153857;28;19924;-68
2023/08/22 04:35:33;;;;;;;;;;;;;;;24.61;44.31;99810.44;3153298;28;20397;-68
2023/08/22 04:37:04;;;;;;;;;;;;;;;24.64;44.33;99815.44;3150113;28;19932;-73
2023/08/22 04:38:36;;;;;;;;;;;;;;;24.68;44.44;99817.66;3153961;28;19973;-74
2023/08/22 04:40:09;;;;;;;;;;;;;;;24.70;44.42;99818.31;3141092;28;19925;-70
2023/08/22 04:41:41;;;;;;;;;;;;;;;24.71;44.15;99822.66;3152833;28;19931;-74
2023/08/22 04:43:11;;;;;;;;;;;;;;;24.71;44.30;99819.16;3153013;28;19928;-69
2023/08/22 04:44:43;;;;;;;;;;;;;;;24.71;44.26;99817.31;3152987;28;19992;-70
2023/08/22 04:46:14;;;;;;;;;;;;;;;24.70;44.40;99821.00;3153083;28;19955;-71
2023/08/22 04:47:45;;;;;;;;;;;;;;;24.69;44.63;99821.97;3153175;28;19924;-66
2023/08/22 04:49:16;;;;;;;;;;;;;;;24.68;44.74;99822.97;3153465;28;19971;-69
2023/08/22 04:50:48;;;;;;;;;;;;;;;24.65;45.15;99817.13;3153302;28;19930;-69
2023/08/22 04:52:19;;;;;;;;;;;;;;;24.62;45.14;99825.44;3145456;28;19923;-69
2023/08/22 04:53:52;;;;;;;;;;;;;;;24.60;45.05;99830.91;3153142;28;19924;-68
2023/08/22 04:55:25;;;;;;;;;;;;;;;24.59;45.13;99831.91;3152200;28;20028;-69
2023/08/22 04:56:55;;;;;;;;;;;;;;;24.58;45.36;99829.41;3144294;28;20396;-72
2023/08/22 04:58:27;;;;;;;;;;;;;;;24.55;45.59;99822.59;3153163;28;19924;-71
2023/08/22 04:59:58;;;;;;;;;;;;;;;24.57;45.69;99827.75;3153303;28;20035;-71
2023/08/22 05:01:29;;;;;;;;;;;;;;;24.58;45.62;99824.06;3150517;28;19924;-72
2023/08/22 05:03:00;;;;;;;;;;;;;;;24.57;45.57;99828.56;3152581;28;19985;-71
2023/08/22 05:04:32;;;;;;;;;;;;;;;24.56;45.93;99826.91;3152977;28;19924;-71
2023/08/22 05:06:03;;;;;;;;;;;;;;;24.55;45.87;99827.91;3153232;28;20010;-72
2023/08/22 05:07:34;;;;;;;;;;;;;;;24.54;45.89;99830.72;3145782;28;20542;-72
2023/08/22 05:09:05;;;;;;;;;;;;;;;24.56;45.93;99834.91;3148821;28;19967;-71
2023/08/22 05:10:38;;;;;;;;;;;;;;;24.60;45.84;99827.41;3150755;28;19930;-72
2023/08/22 05:12:09;;;;;;;;;;;;;;;24.63;45.57;99833.25;3152889;28;19981;-72
2023/08/22 05:13:40;;;;;;;;;;;;;;;24.68;45.51;99830.13;3145619;28;20783;-72
2023/08/22 05:15:11;;;;;;;;;;;;;;;24.70;45.53;99834.31;3140931;28;20360;-72
2023/08/22 05:16:43;;;;;;;;;;;;;;;24.73;45.69;99827.81;3142546;28;19936;-69
2023/08/22 05:18:14;;;;;;;;;;;;;;;24.73;45.76;99828.66;3146621;28;19923;-69
2023/08/22 05:19:46;;;;;;;;;;;;;;;24.78;45.52;99835.31;3142226;28;19924;-67
2023/08/22 05:21:16;;;;;;;;;;;;;;;24.83;45.58;99828.53;3146913;28;19923;-68
2023/08/22 05:22:48;;;;;;;;;;;;;;;24.88;45.40;99830.72;3150359;28;20426;-66
2023/08/22 05:24:18;;;;;;;;;;;;;;;24.95;45.37;99831.72;3152640;28;20457;-67
2023/08/22 05:25:52;;;;;;;;;;;;;;;25.03;45.23;99828.28;3152456;28;20010;-67
2023/08/22 05:27:22;;;;;;;;;;;;;;;25.10;45.04;99826.63;3152083;28;19924;-68
2023/08/22 05:28:54;;;;;;;;;;;;;;;25.15;44.94;99827.84;3152205;28;19931;-67
2023/08/22 05:30:25;;;;;;;;;;;;;;;25.25;45.17;99827.69;3152163;28;20475;-67
2023/08/22 05:31:58;;;;;;;;;;;;;;;25.37;45.14;99830.88;3151802;28;20366;-68
2023/08/22 05:33:30;;;;;;;;;;;;;;;25.65;44.71;99826.91;3143804;28;19924;-68
2023/08/22 05:35:00;;;;;;;;;;;;;;;26.23;43.55;99829.56;3152635;28;19924;-69
2023/08/22 05:36:32;;;;;;;;;;;;;;;26.88;42.41;99818.69;3149052;28;20441;-72
2023/08/22 05:38:03;;;;;;;;;;;;;;;27.47;41.57;99826.22;3140603;28;20408;-73
2023/08/22 05:39:34;;;;;;;;;;;;;;;28.08;40.55;99834.31;3150822;28;19927;-72
2023/08/22 05:41:06;;;;;;;;;;;;;;;28.66;39.75;99827.38;3152011;28;19923;-71
2023/08/22 05:42:38;;;;;;;;;;;;;;;29.17;38.59;99832.75;3152531;28;19971;-70
2023/08/22 05:44:09;;;;;;;;;;;;;;;29.68;38.07;99830.00;3152044;28;19978;-69
2023/08/22 05:45:40;;;;;;;;;;;;;;;30.08;37.49;99827.66;3152278;28;19924;-70
2023/08/22 05:47:11;;;;;;;;;;;;;;;30.46;36.72;99827.28;3152081;28;20389;-70
2023/08/22 05:48:43;;;;;;;;;;;;;;;30.81;35.93;99835.34;3151971;28;20061;-72
2023/08/22 05:50:13;;;;;;;;;;;;;;;30.98;35.61;99825.09;3152571;28;20051;-74
2023/08/22 05:51:45;;;;;;;;;;;;;;;30.96;35.85;99824.44;3149880;28;19931;-73
2023/08/22 05:53:16;;;;;;;;;;;;;;;30.89;36.20;99827.13;3146071;28;19924;-71
2023/08/22 05:54:48;;;;;;;;;;;;;;;30.68;36.18;99829.91;3152395;28;19931;-73
2023/08/22 05:56:20;;;;;;;;;;;;;;;30.43;37.07;99825.00;3149319;28;20391;-70
2023/08/22 05:57:52;;;;;;;;;;;;;;;30.22;37.49;99827.75;3151310;28;19923;-72
2023/08/22 05:59:23;;;;;;;;;;;;;;;30.10;37.90;99832.81;3151727;28;19931;-73
2023/08/22 06:00:57;;;;;;;;;;;;;;;30.02;37.75;99833.78;3152303;28;19975;-70
2023/08/22 06:02:28;;;;;;;;;;;;;;;29.83;38.18;99826.41;3148172;28;19930;-71
2023/08/22 06:04:00;;;;;;;;;;;;;;;29.69;38.67;99834.31;3151927;28;19928;-72
2023/08/22 06:05:31;;;;;;;;;;;;;;;29.55;38.50;99827.16;3146167;28;20391;-69
2023/08/22 06:07:02;;;;;;;;;;;;;;;29.49;38.71;99819.88;3128632;28;19995;-77
2023/08/22 06:08:33;;;;;;;;;;;;;;;29.48;39.17;99815.53;3151853;28;19924;-75
2023/08/22 06:10:05;;;;;;;;;;;;;;;29.46;39.31;99828.28;3151991;28;20491;-76
2023/08/22 06:11:39;;;;;;;;;;;;;;;29.50;39.29;99821.53;3144585;28;19930;-70
2023/08/22 06:13:10;;;;;;;;;;;;;;;29.57;39.25;99814.38;3147250;28;19932;-72
2023/08/22 06:14:41;;;;;;;;;;;;;;;29.67;39.23;99822.97;3149019;28;20425;-74
2023/08/22 06:16:12;;;;;;;;;;;;;;;29.69;39.23;99820.09;3152335;28;20004;-76
2023/08/22 06:17:44;;;;;;;;;;;;;;;29.73;39.23;99823.19;3152227;28;19924;-74
2023/08/22 06:19:15;;;;;;;;;;;;;;;29.80;39.09;99819.56;3152291;28;19924;-74
2023/08/22 06:20:46;;;;;;;;;;;;;;;29.89;38.73;99817.56;3148312;28;19924;-74
2023/08/22 06:22:18;;;;;;;;;;;;;;;29.97;38.69;99822.81;3153594;28;19925;-76
2023/08/22 06:23:49;;;;;;;;;;;;;;;30.08;38.75;99827.66;3152211;28;19923;-76
2023/08/22 06:25:21;;;;;;;;;;;;;;;30.16;38.67;99814.03;3152831;28;19979;-76
2023/08/22 06:26:53;;;;;;;;;;;;;;;30.24;38.59;99820.34;3152109;28;19924;-77
2023/08/22 06:28:24;;;;;;;;;;;;;;;30.34;38.32;99831.56;3152002;28;20304;-78
2023/08/22 06:29:55;;;;;;;;;;;;;;;30.47;38.02;99820.06;3152349;28;20324;-78
2023/08/22 06:31:27;;;;;;;;;;;;;;;30.63;38.31;99826.97;3151893;28;19924;-76
2023/08/22 06:32:58;;;;;;;;;;;;;;;30.72;37.71;99820.41;3152349;28;19930;-75
2023/08/22 06:34:31;;;;;;;;;;;;;;;30.77;37.73;99820.63;3152273;28;20104;-73
2023/08/22 06:36:01;;;;;;;;;;;;;;;30.82;37.41;99826.25;3151899;28;19924;-78
2023/08/22 06:37:33;;;;;;;;;;;;;;;30.86;37.32;99819.47;3146568;28;20372;-73
2023/08/22 06:39:05;;;;;;;;;;;;;;;30.94;37.17;99813.06;3145063;28;19924;-76
2023/08/22 06:40:36;;;;;;;;;;;;;;;30.97;36.91;99823.41;3152051;28;19924;-75
2023/08/22 06:42:09;;;;;;;;;;;;;;;30.96;36.65;99813.69;3152196;28;19978;-72
2023/08/22 06:43:40;;;;;;;;;;;;;;;30.98;36.56;99819.72;3151928;28;19942;-72
2023/08/22 06:45:11;;;;;;;;;;;;;;;31.02;36.40;99819.09;3151998;28;20380;-72
2023/08/22 06:46:43;;;;;;;;;;;;;;;31.10;36.50;99811.88;3152289;28;19935;-72
2023/08/22 06:48:13;;;;;;;;;;;;;;;31.17;36.36;99815.41;3152304;28;20035;-75
2023/08/22 06:49:45;;;;;;;;;;;;;;;31.23;36.24;99820.81;3151000;28;19939;-72
2023/08/22 06:51:17;;;;;;;;;;;;;;;31.31;36.24;99821.66;3152000;28;19923;-72
2023/08/22 06:52:48;;;;;;;;;;;;;;;31.36;35.98;99819.22;3141157;28;19924;-71
2023/08/22 06:54:19;;;;;;;;;;;;;;;31.41;36.06;99819.44;3147157;28;20598;-74
2023/08/22 06:55:51;;;;;;;;;;;;;;;31.46;35.96;99820.47;3151954;28;19963;-73
2023/08/22 06:57:25;;;;;;;;;;;;;;;31.52;35.87;99807.22;3151631;28;19973;-73
2023/08/22 06:58:56;;;;;;;;;;;;;;;31.54;35.26;99814.06;3127275;28;19980;-72
2023/08/22 07:00:28;;;;;;;;;;;;;;;31.58;35.47;99814.50;3151775;28;19943;-72
2023/08/22 07:01:59;;;;;;;;;;;;;;;31.64;35.35;99816.34;3145765;28;19979;-74
2023/08/22 07:03:31;;;;;;;;;;;;;;;31.68;35.32;99810.38;3150659;28;19928;-69
2023/08/22 07:05:02;;;;;;;;;;;;;;;31.75;35.18;99814.91;3151082;28;20383;-75
2023/08/22 07:06:33;;;;;;;;;;;;;;;31.80;35.05;99810.56;3154240;28;19969;-74
2023/08/22 07:08:04;;;;;;;;;;;;;;;31.86;35.10;99807.06;3150297;28;19934;-75
2023/08/22 07:09:36;;;;;;;;;;;;;;;31.95;34.86;99808.53;3154429;28;19924;-70
2023/08/22 07:11:06;;;;;;;;;;;;;;;31.98;34.66;99804.59;3154219;28;19924;-70
2023/08/22 07:12:40;;;;;;;;;;;;;;;32.07;34.46;99811.41;3154367;28;19946;-69
2023/08/22 07:14:10;;;;;;;;;;;;;;;32.11;34.51;99812.63;3147638;28;20141;-68
2023/08/22 07:15:43;;;;;;;;;;;;;;;32.21;34.41;99805.97;3154066;28;19924;-70
2023/08/22 07:17:14;;;;;;;;;;;;;;;32.29;34.37;99811.97;3154172;28;20442;-69
2023/08/22 07:18:45;;;;;;;;;;;;;;;32.37;34.28;99813.63;3154143;28;20389;-70
2023/08/22 07:20:17;;;;;;;;;;;;;;;32.42;33.88;99808.44;3153501;28;19981;-73
2023/08/22 07:21:48;;;;;;;;;;;;;;;32.46;33.79;99808.88;3154254;28;20450;-70
2023/08/22 07:23:19;;;;;;;;;;;;;;;32.49;33.78;99808.44;3141380;28;20032;-69
2023/08/22 07:24:50;;;;;;;;;;;;;;;32.57;33.82;99813.63;3153781;28;20001;-70
2023/08/22 07:26:22;;;;;;;;;;;;;;;32.66;33.65;99801.56;3153949;28;19932;-69
2023/08/22 07:27:54;;;;;;;;;;;;;;;32.77;33.47;99805.44;3153676;28;20018;-72
2023/08/22 07:29:26;;;;;;;;;;;;;;;32.87;33.75;99811.22;3154206;28;19924;-68
2023/08/22 07:31:00;;;;;;;;;;;;;;;32.98;33.46;99812.38;3153774;28;19956;-71
2023/08/22 07:32:31;;;;;;;;;;;;;;;33.05;33.07;99799.75;3149608;28;19927;-71
2023/08/22 07:34:02;;;;;;;;;;;;;;;33.07;32.68;99805.75;3154524;28;19924;-70
2023/08/22 07:35:34;;;;;;;;;;;;;;;33.08;32.74;99797.44;3154146;28;20360;-71
2023/08/22 07:37:06;;;;;;;;;;;;;;;33.17;32.67;99797.19;3154109;28;19924;-71
2023/08/22 07:38:37;;;;;;;;;;;;;;;33.25;32.59;99803.16;3154702;28;19924;-71
2023/08/22 07:40:09;;;;;;;;;;;;;;;33.30;32.57;99800.59;3153686;28;20385;-69
2023/08/22 07:41:40;;;;;;;;;;;;;;;33.45;32.38;99803.00;3154047;28;20397;-69
2023/08/22 07:43:13;;;;;;;;;;;;;;;33.60;32.14;99799.19;3153873;28;20032;-70
2023/08/22 07:44:44;;;;;;;;;;;;;;;33.69;32.16;99798.72;3153941;28;20442;-68
2023/08/22 07:46:15;;;;;;;;;;;;;;;33.84;31.93;99801.06;3149616;28;19924;-72
2023/08/22 07:47:46;;;;;;;;;;;;;;;33.99;31.63;99800.72;3154029;28;19935;-69
2023/08/22 07:49:18;;;;;;;;;;;;;;;34.07;31.59;99800.47;3153304;28;19924;-71
2023/08/22 07:50:48;;;;;;;;;;;;;;;34.23;31.65;99803.66;3145800;28;19924;-71
2023/08/22 07:52:20;;;;;;;;;;;;;;;34.41;31.46;99801.78;3146937;28;19932;-78
2023/08/22 07:53:51;;;;;;;;;;;;;;;34.59;30.90;99803.69;3150656;28;19924;-78
2023/08/22 07:55:23;;;;;;;;;;;;;;;34.78;30.87;99806.34;3153839;28;19924;-78
2023/08/22 07:56:54;;;;;;;;;;;;;;;34.94;30.56;99800.31;3153267;28;19924;-75